Time;durP1;ratioP1;P1;durP2;ratioP2;P2;SDS_P1;SDS_P2;PMS_P1;PMS_P2;Temp;Humidity;BMP_temperature;BMP_pressure;BME280_temperature;BME280_humidity;BME280_pressure;Samples;Min_cycle;Max_cycle;Signal;HPM_P1;HPM_P2
2023/04/04 00:00:23;;;;;;;2.10;0.90;;;;;;;-0.55;100.00;99662.38;5016945;28;20120;-77
2023/04/04 00:02:49;;;;;;;2.63;1.08;;;;;;;-0.60;100.00;99661.84;5034586;28;20036;-77
2023/04/04 00:05:14;;;;;;;2.38;1.00;;;;;;;-0.61;100.00;99659.31;5018043;28;20029;-77
2023/04/04 00:07:39;;;;;;;2.53;1.10;;;;;;;-0.74;100.00;99662.84;5016896;28;20390;-77
2023/04/04 00:10:05;;;;;;;2.90;1.05;;;;;;;-0.87;100.00;99651.38;5034191;28;20025;-77
2023/04/04 00:12:31;;;;;;;7.20;1.30;;;;;;;-0.89;100.00;99656.84;5016053;28;20116;-77
2023/04/04 00:14:56;;;;;;;1.38;0.77;;;;;;;-1.07;100.00;99651.94;5017178;28;20034;-77
2023/04/04 00:17:21;;;;;;;3.33;1.13;;;;;;;-1.06;100.00;99643.06;5028903;28;20061;-77
2023/04/04 00:19:47;;;;;;;3.20;1.13;;;;;;;-1.26;100.00;99653.25;5034746;28;20106;-77
2023/04/04 00:22:15;;;;;;;3.60;1.23;;;;;;;-1.18;100.00;99650.94;5016846;28;20124;-76
2023/04/04 00:24:40;;;;;;;5.65;1.02;;;;;;;-1.22;100.00;99656.56;5010288;28;20025;-77
2023/04/04 00:27:05;;;;;;;3.22;1.10;;;;;;;-1.26;100.00;99642.63;5014542;28;20594;-77
2023/04/04 00:29:33;;;;;;;1.67;0.70;;;;;;;-1.25;100.00;99652.31;5032048;28;20057;-77
2023/04/04 00:31:58;;;;;;;1.75;0.93;;;;;;;-1.26;100.00;99647.94;5013502;28;20033;-77
2023/04/04 00:34:24;;;;;;;7.82;1.10;;;;;;;-1.46;100.00;99640.53;5004987;28;20026;-77
2023/04/04 00:36:49;;;;;;;2.28;0.95;;;;;;;-1.49;100.00;99638.94;5016264;28;20029;-77
2023/04/04 00:39:15;;;;;;;5.32;1.17;;;;;;;-1.52;100.00;99632.97;5012942;28;20487;-78
2023/04/04 00:41:40;;;;;;;2.70;1.38;;;;;;;-1.61;100.00;99631.81;5016530;28;20044;-78
2023/04/04 00:44:07;;;;;;;1.50;0.90;;;;;;;-1.55;100.00;99645.53;5023986;28;20061;-78
2023/04/04 00:46:32;;;;;;;3.75;0.90;;;;;;;-1.84;100.00;99638.69;5046048;28;20053;-78
2023/04/04 00:48:58;;;;;;;2.50;0.88;;;;;;;-1.77;100.00;99647.94;5038017;28;20398;-77
2023/04/04 00:51:23;;;;;;;5.18;1.38;;;;;;;-2.03;100.00;99637.28;5015638;28;20069;-77
2023/04/04 00:53:50;;;;;;;2.33;1.13;;;;;;;-2.05;100.00;99638.34;5033003;28;20115;-77
2023/04/04 00:56:16;;;;;;;2.60;1.08;;;;;;;-2.15;100.00;99638.09;5024098;28;20488;-77
2023/04/04 00:58:42;;;;;;;2.97;1.00;;;;;;;-2.36;100.00;99613.88;5011880;28;20112;-78
2023/04/04 01:01:11;;;;;;;2.38;1.10;;;;;;;-2.31;100.00;99626.81;5015402;28;20505;-77
2023/04/04 01:03:38;;;;;;;0.93;0.70;;;;;;;-2.34;100.00;99622.56;5002644;28;20555;-77
2023/04/04 01:06:04;;;;;;;2.65;1.20;;;;;;;-2.35;100.00;99633.28;5014926;28;20025;-77
2023/04/04 01:08:31;;;;;;;3.25;1.40;;;;;;;-2.56;100.00;99595.81;5015964;28;20028;-77
2023/04/04 01:10:56;;;;;;;2.97;1.30;;;;;;;-2.47;100.00;99622.53;5011460;28;20029;-77
2023/04/04 01:13:22;;;;;;;3.38;1.67;;;;;;;-2.39;100.00;99621.19;5018527;28;20493;-78
2023/04/04 01:15:47;;;;;;;5.55;1.30;;;;;;;-2.39;100.00;99640.56;5031815;28;20510;-77
2023/04/04 01:18:16;;;;;;;4.70;1.23;;;;;;;-2.63;100.00;99611.25;5033682;28;20049;-77
2023/04/04 01:20:51;;;;;;;2.88;1.02;;;;;;;-2.65;100.00;99632.56;5015312;28;20075;-77
2023/04/04 01:23:18;;;;;;;2.25;0.93;;;;;;;-2.53;100.00;99633.53;5015577;28;20025;-77
2023/04/04 01:25:45;;;;;;;3.97;0.90;;;;;;;-2.53;100.00;99628.25;5009823;28;20013;-77
2023/04/04 01:28:10;;;;;;;2.38;0.98;;;;;;;-2.63;100.00;99616.53;5040595;28;20081;-78
2023/04/04 01:30:38;;;;;;;4.35;1.30;;;;;;;-2.42;100.00;99619.59;5033376;28;20037;-78
2023/04/04 01:33:25;;;;;;;4.05;1.10;;;;;;;-2.36;100.00;99615.69;5032146;28;20025;-77
2023/04/04 01:36:18;;;;;;;2.13;1.00;;;;;;;-2.40;100.00;99628.28;5047261;28;20025;-78
2023/04/04 01:39:33;;;;;;;2.60;0.95;;;;;;;-2.49;100.00;99623.56;5024615;28;20460;-77
2023/04/04 01:42:01;;;;;;;3.90;1.10;;;;;;;-2.57;100.00;99616.13;4958217;28;20408;-77
2023/04/04 01:44:27;;;;;;;1.95;0.65;;;;;;;-2.37;100.00;99621.94;5029295;28;20474;-77
2023/04/04 01:46:56;;;;;;;3.58;1.05;;;;;;;-2.39;100.00;99610.59;5015711;28;20562;-77
2023/04/04 01:49:22;;;;;;;7.43;1.40;;;;;;;-2.51;100.00;99618.41;5019631;28;20120;-77
2023/04/04 01:51:48;;;;;;;7.10;1.73;;;;;;;-2.54;100.00;99621.25;5009335;28;20485;-76
2023/04/04 01:54:14;;;;;;;3.50;1.52;;;;;;;-2.70;100.00;99607.28;5033331;28;20052;-77
2023/04/04 01:56:39;;;;;;;3.70;1.08;;;;;;;-2.67;100.00;99609.75;5034708;28;20471;-76
2023/04/04 01:59:04;;;;;;;4.07;1.10;;;;;;;-2.77;100.00;99612.16;5041429;28;20053;-77
2023/04/04 02:01:29;;;;;;;3.88;1.20;;;;;;;-2.80;100.00;99624.72;5022560;28;20039;-76
2023/04/04 02:03:55;;;;;;;2.10;1.02;;;;;;;-2.93;100.00;99599.03;5014969;28;20030;-76
2023/04/04 02:06:21;;;;;;;3.83;1.00;;;;;;;-2.92;100.00;99621.91;5002341;28;20080;-77
2023/04/04 02:08:47;;;;;;;1.50;1.02;;;;;;;-2.96;100.00;99614.25;5006109;28;20033;-76
2023/04/04 02:11:12;;;;;;;5.45;1.50;;;;;;;-3.00;100.00;99621.56;5022128;28;20021;-76
2023/04/04 02:13:42;;;;;;;3.83;1.40;;;;;;;-3.02;100.00;99622.59;5044544;28;20032;-76
2023/04/04 02:16:08;;;;;;;3.38;1.20;;;;;;;-2.95;100.00;99627.41;5010155;28;20403;-77
2023/04/04 02:18:35;;;;;;;7.25;1.33;;;;;;;-2.95;100.00;99626.56;5009974;28;20120;-76
2023/04/04 02:21:00;;;;;;;2.95;1.10;;;;;;;-3.32;100.00;99578.59;5022118;28;20406;-76
2023/04/04 02:23:26;;;;;;;4.18;1.50;;;;;;;-3.12;100.00;99598.50;5033138;28;20083;-76
2023/04/04 02:25:51;;;;;;;2.83;1.02;;;;;;;-3.21;100.00;99607.03;5011054;28;20060;-77
2023/04/04 02:28:16;;;;;;;2.08;1.23;;;;;;;-2.96;100.00;99615.13;5033696;28;20026;-77
2023/04/04 02:30:43;;;;;;;2.22;1.27;;;;;;;-2.91;100.00;99601.56;5027504;28;20476;-76
2023/04/04 02:33:08;;;;;;;2.63;1.20;;;;;;;-2.93;100.00;99601.69;5026098;28;20072;-77
2023/04/04 02:35:33;;;;;;;3.35;1.30;;;;;;;-2.86;100.00;99618.00;5036887;28;20029;-78
2023/04/04 02:37:59;;;;;;;1.80;1.17;;;;;;;-2.92;100.00;99608.66;5025698;28;20024;-78
2023/04/04 02:40:24;;;;;;;3.72;1.10;;;;;;;-3.05;100.00;99615.69;5045898;28;20026;-77
2023/04/04 02:42:49;;;;;;;5.93;1.30;;;;;;;-3.14;100.00;99587.19;5067602;22;20044;-74
2023/04/04 02:45:15;;;;;;;2.20;1.17;;;;;;;-3.12;100.00;99601.13;5011306;28;20037;-74
2023/04/04 02:47:41;;;;;;;3.15;1.30;;;;;;;-3.31;100.00;99577.66;5014515;28;20040;-74
2023/04/04 02:50:08;;;;;;;5.20;1.17;;;;;;;-3.18;100.00;99599.75;5022932;28;20148;-75
2023/04/04 02:52:33;;;;;;;4.63;1.20;;;;;;;-3.12;100.00;99601.13;5018153;28;20029;-75
2023/04/04 02:54:58;;;;;;;3.17;1.30;;;;;;;-3.10;100.00;99609.84;5026699;28;20052;-74
2023/04/04 02:57:24;;;;;;;2.10;1.10;;;;;;;-3.17;100.00;99576.75;5032235;28;20025;-74
2023/04/04 02:59:49;;;;;;;3.67;1.33;;;;;;;-3.07;100.00;99591.13;5055328;28;20037;-74
2023/04/04 03:02:14;;;;;;;3.55;1.13;;;;;;;-3.03;100.00;99591.78;5050694;28;20030;-74
2023/04/04 03:04:39;;;;;;;4.68;1.20;;;;;;;-2.94;100.00;99613.22;5025444;28;20049;-74
2023/04/04 03:07:05;;;;;;;5.07;1.13;;;;;;;-3.13;100.00;99591.50;5034541;28;20032;-74
2023/04/04 03:09:30;;;;;;;3.38;1.30;;;;;;;-3.03;100.00;99608.50;5044925;28;20083;-74
2023/04/04 03:11:56;;;;;;;4.45;1.40;;;;;;;-3.24;100.00;99576.31;5047390;28;20085;-74
2023/04/04 03:14:21;;;;;;;3.08;1.50;;;;;;;-3.20;100.00;99585.75;5021490;28;20030;-78
2023/04/04 03:16:48;;;;;;;2.17;1.30;;;;;;;-3.22;100.00;99606.19;5010162;28;20387;-76
2023/04/04 03:19:15;;;;;;;3.38;1.17;;;;;;;-3.25;100.00;99603.72;5032106;28;20036;-75
2023/04/04 03:21:40;;;;;;;2.80;1.25;;;;;;;-3.38;100.00;99595.72;5028275;28;20018;-75
2023/04/04 03:24:05;;;;;;;4.45;1.50;;;;;;;-3.44;100.00;99572.25;5012846;28;20025;-76
2023/04/04 03:26:31;;;;;;;2.88;1.30;;;;;;;-3.33;100.00;99579.53;5025579;28;20036;-76
2023/04/04 03:28:56;;;;;;;2.03;1.05;;;;;;;-3.16;100.00;99608.44;5029860;28;20041;-77
2023/04/04 03:31:21;;;;;;;3.15;1.50;;;;;;;-3.20;100.00;99593.69;5015668;28;20025;-76
2023/04/04 03:33:47;;;;;;;2.35;1.50;;;;;;;-3.18;100.00;99604.19;5035827;28;20032;-76
2023/04/04 03:36:13;;;;;;;2.75;1.20;;;;;;;-3.44;100.00;99550.25;5033057;28;20036;-76
2023/04/04 03:38:39;;;;;;;4.45;1.83;;;;;;;-3.21;100.00;99599.09;5017872;28;20465;-76
2023/04/04 03:41:05;;;;;;;1.55;1.10;;;;;;;-3.24;100.00;99596.66;5035445;28;20032;-76
2023/04/04 03:43:31;;;;;;;4.07;1.55;;;;;;;-3.23;100.00;99606.28;5029077;28;20036;-77
2023/04/04 03:46:00;;;;;;;5.18;1.50;;;;;;;-3.35;100.00;99579.66;5023212;28;20033;-76
2023/04/04 03:48:26;;;;;;;1.92;1.17;;;;;;;-3.13;100.00;99602.09;5031772;28;20064;-76
2023/04/04 03:50:51;;;;;;;4.13;1.60;;;;;;;-3.48;100.00;99570.78;5031931;28;20057;-78
2023/04/04 03:53:17;;;;;;;3.65;1.60;;;;;;;-3.44;100.00;99601.38;5033937;28;20029;-79
2023/04/04 03:55:42;;;;;;;3.60;1.42;;;;;;;-3.62;100.00;99590.13;5026846;28;20021;-78
2023/04/04 03:58:07;;;;;;;2.45;1.50;;;;;;;-3.75;100.00;99568.91;5013512;28;20052;-79
2023/04/04 04:00:35;;;;;;;6.00;1.60;;;;;;;-3.76;100.00;99598.91;5018662;28;20105;-78
2023/04/04 04:03:00;;;;;;;3.22;1.40;;;;;;;-3.69;100.00;99582.66;5037654;28;20029;-76
2023/04/04 04:05:26;;;;;;;4.18;1.40;;;;;;;-3.88;100.00;99593.50;5005102;28;20018;-78
2023/04/04 04:07:51;;;;;;;2.55;1.50;;;;;;;-3.93;100.00;99596.44;5014608;28;20033;-77
2023/04/04 04:10:17;;;;;;;4.30;2.00;;;;;;;-4.09;100.00;99600.94;5025541;28;20025;-76
2023/04/04 04:12:42;;;;;;;3.55;1.65;;;;;;;-4.25;100.00;99590.41;5015490;28;20028;-76
2023/04/04 04:15:08;;;;;;;6.57;2.20;;;;;;;-3.91;100.00;99591.91;5024965;28;20494;-77
2023/04/04 04:17:33;;;;;;;4.18;1.70;;;;;;;-3.75;100.00;99603.28;5035637;28;20056;-77
2023/04/04 04:19:58;;;;;;;4.65;1.83;;;;;;;-3.88;100.00;99597.00;5037979;28;20028;-78
2023/04/04 04:22:23;;;;;;;5.70;1.63;;;;;;;-3.91;100.00;99557.53;5045289;28;20167;-76
2023/04/04 04:24:49;;;;;;;7.15;1.52;;;;;;;-3.60;100.00;99590.03;5015975;28;20018;-77
2023/04/04 04:27:14;;;;;;;6.28;1.80;;;;;;;-3.47;100.00;99614.78;5043762;28;20085;-77
2023/04/04 04:29:40;;;;;;;5.85;1.83;;;;;;;-3.82;100.00;99564.91;5034646;28;20027;-76
2023/04/04 04:32:05;;;;;;;5.03;1.73;;;;;;;-3.89;100.00;99566.22;5015732;28;20029;-78
2023/04/04 04:34:31;;;;;;;5.72;1.60;;;;;;;-3.75;100.00;99592.69;5032795;28;20036;-79
2023/04/04 04:36:56;;;;;;;7.43;1.98;;;;;;;-3.63;100.00;99598.16;5028250;28;20409;-77
2023/04/04 04:39:22;;;;;;;5.65;1.88;;;;;;;-3.65;100.00;99606.19;5016730;28;20017;-75
2023/04/04 04:41:47;;;;;;;3.85;1.80;;;;;;;-3.63;100.00;99592.88;5016934;28;20022;-75
2023/04/04 04:44:12;;;;;;;5.32;2.05;;;;;;;-3.69;100.00;99582.66;5013411;28;20052;-76
2023/04/04 04:46:43;;;;;;;5.95;2.20;;;;;;;-3.57;100.00;99609.19;5021791;28;20037;-80
2023/04/04 04:49:09;;;;;;;3.53;1.83;;;;;;;-4.60;100.00;99450.75;5024966;28;20037;-79
2023/04/04 04:51:41;;;;;;;4.63;1.83;;;;;;;-4.44;100.00;99433.03;5024005;28;20021;-80
2023/04/04 04:54:07;;;;;;;2.75;2.05;;;;;;;-3.90;100.00;99490.53;5023899;28;20032;-78
2023/04/04 04:56:37;;;;;;;4.70;2.05;;;;;;;-4.09;100.00;99426.53;5020169;28;20029;-78
2023/04/04 04:59:03;;;;;;;4.38;1.95;;;;;;;-3.52;100.00;99487.25;5029187;28;20034;-80
2023/04/04 05:01:31;;;;;;;3.25;1.52;;;;;;;-2.58;100.00;99613.59;5037430;23;20052;-67
2023/04/04 05:03:56;;;;;;;3.40;1.67;;;;;;;-2.54;100.00;99607.13;5026572;28;20115;-65
2023/04/04 05:06:22;;;;;;;3.53;2.00;;;;;;;-2.61;100.00;99588.16;5036481;28;20077;-66
2023/04/04 05:08:47;;;;;;;4.72;2.08;;;;;;;-2.46;100.00;99612.81;5016011;28;20468;-65
2023/04/04 05:11:13;;;;;;;2.70;2.00;;;;;;;-2.39;100.00;99613.22;5007467;28;20034;-66
2023/04/04 05:13:40;;;;;;;3.67;2.22;;;;;;;-2.33;100.00;99618.13;5014754;28;20029;-66
2023/04/04 05:16:06;;;;;;;4.20;1.85;;;;;;;-2.16;100.00;99630.25;5014342;28;20080;-65
2023/04/04 05:18:31;;;;;;;3.75;1.95;;;;;;;-2.06;100.00;99624.25;5024461;28;20029;-65
2023/04/04 05:20:57;;;;;;;4.38;1.95;;;;;;;-2.11;100.00;99622.84;5006168;28;20473;-65
2023/04/04 05:23:23;;;;;;;3.78;1.70;;;;;;;-2.09;100.00;99621.81;4997011;28;20437;-64
2023/04/04 05:25:52;;;;;;;5.40;3.08;;;;;;;-2.10;100.00;99621.88;5039426;28;20082;-65
2023/04/04 05:28:19;;;;;;;6.63;1.90;;;;;;;-2.03;100.00;99613.44;5019632;28;20469;-65
2023/04/04 05:30:44;;;;;;;4.03;1.90;;;;;;;-1.91;100.00;99618.84;5012583;28;20034;-64
2023/04/04 05:33:10;;;;;;;5.60;2.38;;;;;;;-1.97;100.00;99620.09;5035593;28;20062;-65
2023/04/04 05:35:40;;;;;;;4.47;2.13;;;;;;;-1.75;100.00;99618.69;5028603;28;20109;-65
2023/04/04 05:38:06;;;;;;;7.43;2.25;;;;;;;0.04;100.00;99608.34;5015245;28;20052;-65
2023/04/04 05:40:31;;;;;;;3.03;1.75;;;;;;;3.10;100.00;99609.94;5015901;28;20052;-66
2023/04/04 05:42:59;;;;;;;3.33;1.60;;;;;;;5.95;71.96;99601.81;5013187;28;20468;-64
2023/04/04 05:45:25;;;;;;;4.63;1.45;;;;;;;7.01;60.80;99586.38;5022439;28;20017;-65
2023/04/04 05:47:51;;;;;;;3.03;1.50;;;;;;;8.05;56.46;99587.00;5036149;28;20027;-65
2023/04/04 05:50:16;;;;;;;3.15;1.60;;;;;;;8.53;53.62;99586.13;5018367;28;20362;-66
2023/04/04 05:52:42;;;;;;;5.80;1.77;;;;;;;9.44;49.19;99595.63;5010487;28;20384;-64
2023/04/04 05:55:08;;;;;;;2.90;1.40;;;;;;;9.92;48.40;99598.19;5018530;28;20029;-66
2023/04/04 05:57:33;;;;;;;2.65;1.38;;;;;;;10.65;46.20;99593.22;5012348;28;20036;-66
2023/04/04 05:59:58;;;;;;;2.03;1.20;;;;;;;12.14;44.20;99589.28;5017268;28;20473;-66
2023/04/04 06:02:25;;;;;;;3.97;1.48;;;;;;;12.57;41.65;99591.13;5010812;28;20026;-65
2023/04/04 06:04:50;;;;;;;3.70;1.55;;;;;;;12.54;41.24;99592.34;5013278;28;20022;-65
2023/04/04 06:07:15;;;;;;;3.47;1.27;;;;;;;12.27;40.75;99594.00;5015334;28;20025;-66
2023/04/04 06:09:42;;;;;;;3.15;1.27;;;;;;;12.58;40.30;99590.09;5013351;28;20018;-67
2023/04/04 06:12:09;;;;;;;2.05;1.27;;;;;;;14.02;39.36;99587.47;5000975;28;20029;-66
2023/04/04 06:14:36;;;;;;;3.58;1.30;;;;;;;16.14;35.82;99590.81;5007787;28;20017;-66
2023/04/04 06:17:03;;;;;;;3.50;1.45;;;;;;;16.35;34.51;99586.88;5010209;28;20032;-67
2023/04/04 06:19:29;;;;;;;2.60;1.20;;;;;;;15.28;34.84;99602.94;5012777;28;20037;-66
2023/04/04 06:21:54;;;;;;;2.35;1.13;;;;;;;13.92;36.30;99598.75;5015366;28;20030;-66
2023/04/04 06:24:20;;;;;;;1.85;1.10;;;;;;;14.33;35.73;99600.50;5012649;28;20492;-66
2023/04/04 06:26:50;;;;;;;2.10;1.35;;;;;;;14.92;35.19;99603.44;5014173;28;20083;-67
2023/04/04 06:29:15;;;;;;;5.28;1.27;;;;;;;16.10;34.33;99590.41;5022163;28;20017;-68
2023/04/04 06:31:42;;;;;;;3.55;1.30;;;;;;;16.31;33.66;99594.66;5014272;28;20350;-68
2023/04/04 06:34:07;;;;;;;4.05;1.10;;;;;;;15.92;33.42;99591.13;5015147;28;20026;-68
2023/04/04 06:36:34;;;;;;;4.30;1.40;;;;;;;15.36;33.77;99588.22;5013160;28;20041;-68
2023/04/04 06:38:59;;;;;;;2.15;1.17;;;;;;;15.56;33.84;99591.69;5017099;28;20044;-68
2023/04/04 06:41:26;;;;;;;5.30;1.58;;;;;;;16.83;32.62;99586.28;5017553;28;20501;-65
2023/04/04 06:43:51;;;;;;;3.70;1.40;;;;;;;17.89;31.46;99581.47;5015193;28;20025;-65
2023/04/04 06:46:18;;;;;;;6.25;1.60;;;;;;;17.30;31.61;99581.97;5012084;28;20036;-66
2023/04/04 06:48:43;;;;;;;4.40;1.52;;;;;;;17.25;31.52;99578.25;5042161;28;20025;-66
2023/04/04 06:51:10;;;;;;;2.80;1.33;;;;;;;17.08;31.43;99580.75;5015622;28;21646;-68
2023/04/04 06:53:36;;;;;;;3.78;1.20;;;;;;;16.88;31.73;99580.97;5016271;28;20029;-68
2023/04/04 06:56:02;;;;;;;2.75;1.33;;;;;;;17.15;31.95;99584.25;5007416;28;20029;-65
2023/04/04 06:58:27;;;;;;;4.30;1.38;;;;;;;16.08;31.37;99587.03;5013076;28;20083;-66
2023/04/04 07:00:53;;;;;;;7.90;1.38;;;;;;;16.61;31.69;99574.88;5013223;28;20026;-66
2023/04/04 07:03:19;;;;;;;5.18;1.42;;;;;;;16.23;31.98;99578.53;5016374;28;20041;-65
2023/04/04 07:05:45;;;;;;;3.30;1.10;;;;;;;16.20;32.19;99566.19;5019467;28;20115;-66
2023/04/04 07:08:11;;;;;;;4.15;1.42;;;;;;;15.27;32.54;99587.63;5017999;28;20017;-67
2023/04/04 07:10:36;;;;;;;6.07;1.70;;;;;;;15.38;32.71;99580.66;5016691;28;20036;-67
2023/04/04 07:13:02;;;;;;;2.17;1.15;;;;;;;14.76;33.21;99589.19;5018346;28;20485;-66
2023/04/04 07:15:27;;;;;;;3.78;1.25;;;;;;;13.95;33.49;99589.34;5017175;28;20033;-67
2023/04/04 07:17:53;;;;;;;6.20;1.25;;;;;;;14.92;32.81;99587.09;5026636;28;20033;-67
2023/04/04 07:20:21;;;;;;;3.92;1.58;;;;;;;14.41;32.95;99596.75;5020793;28;20096;-66
2023/04/04 07:22:47;;;;;;;4.75;1.40;;;;;;;15.32;32.79;99591.38;5033108;28;20073;-67
2023/04/04 07:25:13;;;;;;;4.10;1.48;;;;;;;16.22;31.94;99587.81;5010117;28;20022;-67
2023/04/04 07:27:39;;;;;;;2.15;1.23;;;;;;;16.41;31.77;99588.72;5017157;28;20048;-67
2023/04/04 07:30:07;;;;;;;3.05;1.50;;;;;;;15.80;31.92;99592.03;5017622;28;20030;-67
2023/04/04 07:32:32;;;;;;;3.70;1.42;;;;;;;17.93;30.49;99577.22;5016425;28;20374;-65
2023/04/04 07:34:58;;;;;;;3.72;1.23;;;;;;;19.44;29.10;99566.59;5007913;28;20022;-66
2023/04/04 07:37:25;;;;;;;3.08;1.20;;;;;;;18.87;29.15;99574.69;5024239;28;20388;-65
2023/04/04 07:39:52;;;;;;;6.18;1.92;;;;;;;18.87;28.82;99574.69;5020234;28;20021;-66
2023/04/04 07:42:24;;;;;;;8.23;1.55;;;;;;;18.56;28.58;99579.38;5013610;28;20472;-66
2023/04/04 07:44:53;;;;;;;3.75;1.58;;;;;;;17.64;29.80;99576.94;5029138;28;20017;-68
2023/04/04 07:47:20;;;;;;;3.90;1.33;;;;;;;18.08;29.73;99574.91;5016936;28;20028;-67
2023/04/04 07:49:50;;;;;;;3.63;1.27;;;;;;;18.16;29.61;99577.28;5013689;28;20045;-67
2023/04/04 07:52:16;;;;;;;2.33;1.30;;;;;;;18.72;28.50;99574.28;5034250;28;20071;-67
2023/04/04 07:54:41;;;;;;;4.05;1.52;;;;;;;18.72;28.81;99579.75;5044485;28;20032;-67
2023/04/04 07:57:11;;;;;;;5.65;1.48;;;;;;;19.33;28.69;99566.63;5040366;28;20033;-67
2023/04/04 07:59:36;;;;;;;6.90;2.15;;;;;;;18.56;28.49;99582.13;4997708;28;20022;-67
2023/04/04 08:02:02;;;;;;;5.70;1.80;;;;;;;17.98;29.81;99579.25;5011047;28;20028;-66
2023/04/04 08:04:28;;;;;;;2.50;1.15;;;;;;;17.71;29.08;99574.09;5015267;28;20417;-66
2023/04/04 08:06:53;;;;;;;5.18;1.48;;;;;;;15.80;30.15;99581.97;5012184;28;20118;-66
2023/04/04 08:09:19;;;;;;;3.53;1.80;;;;;;;15.85;30.40;99575.84;5011500;28;20116;-67
2023/04/04 08:11:44;;;;;;;6.85;1.55;;;;;;;16.88;30.40;99574.69;5011132;28;20021;-68
2023/04/04 08:14:10;;;;;;;3.22;1.20;;;;;;;18.37;29.68;99573.19;5011793;28;20029;-69
2023/04/04 08:16:37;;;;;;;3.58;1.50;;;;;;;19.82;28.04;99570.69;5005695;28;20022;-67
2023/04/04 08:19:06;;;;;;;3.17;1.50;;;;;;;19.85;27.56;99570.19;5004731;28;20031;-66
2023/04/04 08:21:32;;;;;;;5.53;1.77;;;;;;;18.61;28.93;99579.50;5032380;28;20028;-66
2023/04/04 08:23:57;;;;;;;4.10;1.60;;;;;;;19.59;27.72;99577.03;5031586;28;20041;-66
2023/04/04 08:26:22;;;;;;;3.00;1.60;;;;;;;19.29;28.21;99579.19;5017007;28;20030;-67
2023/04/04 08:28:48;;;;;;;3.25;1.63;;;;;;;20.60;27.08;99568.25;5031166;28;20155;-66
2023/04/04 08:31:17;;;;;;;2.83;1.20;;;;;;;19.65;27.65;99572.53;5012891;28;20036;-67
2023/04/04 08:33:43;;;;;;;3.58;1.50;;;;;;;19.15;27.50;99573.94;5016400;28;20053;-67
2023/04/04 08:36:09;;;;;;;2.45;1.10;;;;;;;19.65;27.58;99573.34;5032380;28;20029;-66
2023/04/04 08:38:35;;;;;;;3.92;1.20;;;;;;;18.95;27.65;99578.97;5020019;28;20021;-66
2023/04/04 08:41:01;;;;;;;4.78;1.52;;;;;;;19.01;27.60;99578.84;5017050;28;20060;-67
2023/04/04 08:43:26;;;;;;;4.28;1.67;;;;;;;18.08;28.96;99574.91;5044875;23;20079;-63
2023/04/04 08:45:53;;;;;;;2.97;1.50;;;;;;;18.56;28.03;99584.03;5025045;28;20025;-66
2023/04/04 08:48:20;;;;;;;4.70;1.90;;;;;;;19.38;27.64;99583.19;5023275;28;20049;-65
2023/04/04 08:50:45;;;;;;;3.75;1.48;;;;;;;18.38;27.86;99577.56;5034490;28;20115;-66
2023/04/04 08:53:14;;;;;;;2.25;1.30;;;;;;;18.48;28.67;99584.41;5028701;28;20111;-67
2023/04/04 08:55:41;;;;;;;6.68;1.85;;;;;;;18.94;28.05;99580.88;5031483;28;20052;-66
2023/04/04 08:58:07;;;;;;;3.38;1.50;;;;;;;21.30;26.46;99571.44;5033562;28;20057;-67
2023/04/04 09:00:33;;;;;;;2.95;1.40;;;;;;;20.68;26.98;99569.75;5031362;28;20029;-63
2023/04/04 09:03:26;;;;;;;6.55;1.55;;;;;;;21.80;26.32;99562.19;5035562;28;20036;-64
2023/04/04 09:05:54;;;;;;;4.18;1.77;;;;;;;21.22;25.96;99569.97;5032056;28;20032;-64
2023/04/04 09:08:22;;;;;;;4.15;1.63;;;;;;;20.45;26.28;99574.28;5029205;28;20044;-63
2023/04/04 09:10:48;;;;;;;2.65;1.50;;;;;;;21.64;26.42;99555.66;5031338;28;20122;-63
2023/04/04 09:13:14;;;;;;;4.55;1.70;;;;;;;23.26;25.20;99560.09;5029968;28;20467;-63
2023/04/04 09:15:45;;;;;;;3.25;1.50;;;;;;;22.86;25.23;99575.31;5032259;28;20031;-63
2023/04/04 09:18:10;;;;;;;3.38;1.52;;;;;;;22.52;25.87;99559.03;5016283;28;20031;-63
2023/04/04 09:20:36;;;;;;;5.75;1.50;;;;;;;21.43;25.83;99566.44;5025599;28;20380;-62
2023/04/04 09:23:13;;;;;;;3.53;1.83;;;;;;;20.07;26.78;99566.75;5041240;28;20025;-62
2023/04/04 09:25:47;;;;;;;4.18;1.60;;;;;;;22.06;26.58;99569.63;5042032;28;20039;-62
2023/04/04 09:28:14;;;;;;;2.35;1.30;;;;;;;22.61;25.57;99564.94;5048710;28;20036;-63
2023/04/04 09:30:40;;;;;;;3.38;1.40;;;;;;;23.29;24.88;99559.59;5027640;28;20035;-62
2023/04/04 09:33:12;;;;;;;3.53;1.67;;;;;;;22.64;25.50;99555.28;5034730;28;20021;-68
2023/04/04 09:35:43;;;;;;;3.53;1.83;;;;;;;23.77;24.14;99554.00;5030799;28;20021;-62
2023/04/04 09:38:08;;;;;;;3.03;1.40;;;;;;;23.50;25.40;99551.38;5037336;28;20029;-67
2023/04/04 09:40:35;;;;;;;4.57;1.45;;;;;;;20.85;26.66;99564.22;5023547;28;20035;-71
2023/04/04 09:43:03;;;;;;;5.72;1.65;;;;;;;22.04;26.45;99560.78;5026912;28;20025;-70
2023/04/04 09:45:39;;;;;;;4.40;1.77;;;;;;;23.12;24.95;99553.41;5031644;28;20020;-67
2023/04/04 09:48:05;;;;;;;3.70;1.60;;;;;;;22.43;25.27;99557.06;5033999;28;20108;-68
2023/04/04 09:50:32;;;;;;;3.13;1.45;;;;;;;20.81;25.62;99557.56;5034857;28;20055;-67
2023/04/04 09:52:59;;;;;;;3.13;1.50;;;;;;;19.40;27.02;99564.59;5031969;28;20052;-67
2023/04/04 09:55:37;;;;;;;4.38;1.48;;;;;;;21.57;26.92;99561.38;5042599;28;20031;-67
2023/04/04 09:58:25;;;;;;;2.22;1.40;;;;;;;21.43;25.98;99554.59;5032887;28;20047;-68
2023/04/04 10:00:55;;;;;;;4.07;1.67;;;;;;;21.74;26.36;99558.53;5038289;28;20032;-67
2023/04/04 10:03:22;;;;;;;2.35;1.50;;;;;;;21.26;25.52;99554.63;5029794;28;20136;-67
2023/04/04 10:05:55;;;;;;;2.47;1.30;;;;;;;22.71;24.98;99558.63;5021409;28;20022;-67
2023/04/04 10:08:21;;;;;;;3.95;1.38;;;;;;;22.22;24.54;99551.34;5018778;28;20290;-68
2023/04/04 10:10:48;;;;;;;3.42;1.70;;;;;;;22.14;24.96;99554.56;5054701;28;20051;-68
2023/04/04 10:13:28;;;;;;;4.78;1.65;;;;;;;22.85;25.04;99553.50;5036028;28;20027;-67
2023/04/04 10:15:56;;;;;;;2.50;1.40;;;;;;;19.88;26.20;99555.97;5026888;28;20052;-62
2023/04/04 10:18:26;;;;;;;3.58;1.73;;;;;;;20.51;27.21;99548.56;5037156;28;20033;-61
2023/04/04 10:20:56;;;;;;;6.45;1.90;;;;;;;22.41;26.38;99549.03;5032981;28;20036;-65
2023/04/04 10:23:25;;;;;;;3.10;1.55;;;;;;;23.45;25.54;99551.34;5032564;28;20031;-61
2023/04/04 10:25:53;;;;;;;2.70;1.08;;;;;;;24.25;24.54;99541.63;5034758;28;20014;-62
2023/04/04 10:28:20;;;;;;;3.05;1.58;;;;;;;25.94;24.06;99530.19;5035783;28;20135;-62
2023/04/04 10:31:02;;;;;;;3.92;1.83;;;;;;;26.36;23.10;99530.72;5032824;28;20033;-62
2023/04/04 10:33:49;;;;;;;2.85;1.30;;;;;;;26.66;23.04;99524.91;5023984;28;20025;-63
2023/04/04 10:36:21;;;;;;;3.75;1.48;;;;;;;24.96;22.91;99531.66;5042704;28;20021;-62
2023/04/04 10:38:57;;;;;;;3.72;1.60;;;;;;;24.59;23.58;99521.75;5042978;28;20104;-67
2023/04/04 10:41:25;;;;;;;2.80;1.55;;;;;;;24.18;23.14;99526.44;5033559;28;20480;-68
2023/04/04 10:43:55;;;;;;;3.28;1.73;;;;;;;23.88;23.71;99533.56;5031441;28;20053;-68
2023/04/04 10:46:29;;;;;;;6.68;1.60;;;;;;;23.71;24.72;99528.28;5038750;28;20031;-68
2023/04/04 10:48:56;;;;;;;3.33;1.50;;;;;;;22.46;24.67;99535.28;5032799;28;20480;-68
2023/04/04 10:51:22;;;;;;;3.45;1.70;;;;;;;22.74;25.54;99538.78;5025453;28;20033;-63
2023/04/04 10:53:48;;;;;;;2.85;1.30;;;;;;;23.60;26.40;99527.38;5023043;28;20025;-63
2023/04/04 10:56:15;;;;;;;5.00;1.73;;;;;;;25.02;24.28;99513.94;5021012;28;20080;-63
2023/04/04 10:58:40;;;;;;;2.72;1.27;;;;;;;26.81;23.64;99496.19;5023697;28;20125;-64
2023/04/04 11:01:06;;;;;;;4.03;1.60;;;;;;;25.24;23.68;99521.09;5035043;28;20028;-63
2023/04/04 11:04:12;;;;;;;3.67;1.90;;;;;;;24.82;23.78;99517.56;5033123;28;20035;-63
2023/04/04 11:07:08;;;;;;;2.30;1.40;;;;;;;23.33;23.83;99522.03;5029496;28;20075;-63
2023/04/04 11:09:50;;;;;;;2.65;1.45;;;;;;;23.51;24.22;99509.69;5043949;28;20045;-63
2023/04/04 11:12:22;;;;;;;3.17;1.38;;;;;;;23.31;24.70;99512.38;5025505;28;20033;-63
2023/04/04 11:15:08;;;;;;;4.25;1.95;;;;;;;22.45;25.58;99508.81;5029832;28;20032;-62
2023/04/04 11:17:43;;;;;;;3.88;1.73;;;;;;;26.53;23.88;99497.03;5029127;28;20175;-63
2023/04/04 11:20:10;;;;;;;3.75;1.42;;;;;;;25.89;23.28;99499.72;5045857;28;20025;-63
2023/04/04 11:22:36;;;;;;;2.45;1.45;;;;;;;25.69;24.01;99488.72;5029139;28;20514;-63
2023/04/04 11:25:25;;;;;;;3.08;1.40;;;;;;;23.05;24.72;99508.66;5024579;28;20037;-63
2023/04/04 11:27:55;;;;;;;3.75;1.70;;;;;;;22.64;24.51;99508.41;5036715;28;20025;-62
2023/04/04 11:30:27;;;;;;;2.83;1.52;;;;;;;23.50;23.66;99507.19;5031588;28;20024;-63